Entebbe International Airport

HUEN · Central Region, 乌干达

罗盘
风向 的 风向 190° Entebbe International Airport 17/35
风: 6 kt, 2 beaufort

6 kt

2 kt
改变
0 ft 1.000 2.000 3.000 4.000 5.000
Cloud Cloud
FEW 2.200
Cloud Cloud
FEW 2.400
METAR HUEN 241500Z 19006KT 9999 FEW022 FEW024CB 25/20 Q1016

METAR Entebbe International Airport - HUEN/EBB

Entebbe International Airport是,乌干达中的大型机场。 该机场位于纬度0,04239和经度32,44350。 该机场有2条跑道: 17/35 和 12/30. 本场的ICAO机场代码为HUEN。 该机场的IATA代码为EBB。 机场在Entebbe FIR中。

该航空气象观测是针对Entebbe International Airport在2024年5月24日 18:00, 当地时间进行的。

机场观察

风向为190°,速度为6 kt。

可见度为10 km 或者更多。

有几云在2.200 ft的高度 和 几云 积雨云在2.400 ft的高度。 没有观察到天花板。

温度和风寒是25 °C。 露点为20 °C,相对湿度为74%。 海平面上的气压为1016 hPa (QNH)。

白天

今天,太阳从06:43升起,在18:50降落。 这适用于Entebbe International Airport,世界夏令时可能有所不同。 当地时间与世界标准时间之间的时差为+3 小时。 夏令时目前正在进行中。

公司介绍

我们没有关于这个机场的公司信息。

体会

到Vliegles.nl去找飞行课程,跳伞和其他飞行体验。 浏览页面,了解Entebbe International Airport附近所有可用的活动。 你也可以使用搜索功能来寻找你所在地附近的特定飞行课程、跳伞或其他飞行体验。

跑道

Id 标题 侧风 逆风 侧风 %
17/35 170°-350° 2 kt 6 kt 34 %
12/30 120°-300° 6 kt 2 kt 94 %

逆风成分最大的方向会被突出显示,并用于横风计算。 这并不一定意味着这个方向在使用。

乌云

2.200 ft FEW 几云
2.400 ft FEW 几云 积雨云

温度 & 天气

温度 25 °C
露点 20 °C
相对湿度 74%
Kp-index 0 (0-9)

白天

日出
06:43 (11:01)
中午
12:47
日落
18:50

小工具

你想在你的网站上有一个关于Entebbe International Airport的当前航空天气(METAR)的小部件吗?

显示HTML代码
报告变更